sensor_id;sensor_type;location;lat;lon;timestamp;pressure;altitude;pressure_sealevel;temperature;humidity
25156;BME280;71253;51.496;7.606;2024-01-30T00:01:52;101312.94;;;7.21;98.97
25156;BME280;71253;51.496;7.606;2024-01-30T00:06:54;101322.81;;;7.09;99.63
25156;BME280;71253;51.496;7.606;2024-01-30T00:11:56;101321.38;;;7.17;99.17
25156;BME280;71253;51.496;7.606;2024-01-30T00:16:58;101323.75;;;7.11;99.43
25156;BME280;71253;51.496;7.606;2024-01-30T00:21:59;101324.47;;;7.07;99.85
25156;BME280;71253;51.496;7.606;2024-01-30T00:27:01;101313.72;;;7.19;98.68
25156;BME280;71253;51.496;7.606;2024-01-30T00:32:03;101312.75;;;7.41;97.52
25156;BME280;71253;51.496;7.606;2024-01-30T00:37:05;101311.19;;;7.46;96.98
25156;BME280;71253;51.496;7.606;2024-01-30T00:42:06;101314.16;;;7.58;95.73
25156;BME280;71253;51.496;7.606;2024-01-30T00:47:08;101310.03;;;7.63;95.39
25156;BME280;71253;51.496;7.606;2024-01-30T00:52:10;101304.22;;;7.69;95.01
25156;BME280;71253;51.496;7.606;2024-01-30T00:57:12;101304.25;;;7.70;94.32
25156;BME280;71253;51.496;7.606;2024-01-30T01:02:13;101311.59;;;7.58;94.93
25156;BME280;71253;51.496;7.606;2024-01-30T01:07:15;101305.75;;;7.63;94.81
25156;BME280;71253;51.496;7.606;2024-01-30T01:12:17;101301.59;;;7.67;94.25
25156;BME280;71253;51.496;7.606;2024-01-30T01:17:18;101294.91;;;7.47;94.99
25156;BME280;71253;51.496;7.606;2024-01-30T01:22:20;101295.66;;;7.44;95.36
25156;BME280;71253;51.496;7.606;2024-01-30T01:27:21;101298.94;;;7.38;95.86
25156;BME280;71253;51.496;7.606;2024-01-30T01:32:23;101294.56;;;7.36;95.67
25156;BME280;71253;51.496;7.606;2024-01-30T01:37:25;101295.31;;;7.33;96.00
25156;BME280;71253;51.496;7.606;2024-01-30T01:42:26;101296.22;;;7.34;96.15
25156;BME280;71253;51.496;7.606;2024-01-30T01:47:28;101294.28;;;7.28;96.06
25156;BME280;71253;51.496;7.606;2024-01-30T01:52:31;101291.63;;;7.25;96.30
25156;BME280;71253;51.496;7.606;2024-01-30T01:57:33;101299.13;;;7.18;96.94
25156;BME280;71253;51.496;7.606;2024-01-30T02:02:36;101290.56;;;7.19;96.97
25156;BME280;71253;51.496;7.606;2024-01-30T02:07:38;101291.22;;;7.13;97.35
25156;BME280;71253;51.496;7.606;2024-01-30T02:12:40;101291.06;;;7.08;97.82
25156;BME280;71253;51.496;7.606;2024-01-30T02:17:42;101281.03;;;7.16;96.99
25156;BME280;71253;51.496;7.606;2024-01-30T02:22:43;101270.16;;;7.25;97.18
25156;BME280;71253;51.496;7.606;2024-01-30T02:27:46;101263.88;;;7.17;96.89
25156;BME280;71253;51.496;7.606;2024-01-30T02:32:47;101263.78;;;7.14;97.03
25156;BME280;71253;51.496;7.606;2024-01-30T02:37:49;101266.16;;;7.07;97.43
25156;BME280;71253;51.496;7.606;2024-01-30T02:42:51;101261.69;;;7.02;98.05
25156;BME280;71253;51.496;7.606;2024-01-30T02:47:52;101261.94;;;7.09;98.02
25156;BME280;71253;51.496;7.606;2024-01-30T02:52:54;101250.06;;;7.13;97.91
25156;BME280;71253;51.496;7.606;2024-01-30T02:57:56;101242.53;;;7.19;97.37
25156;BME280;71253;51.496;7.606;2024-01-30T03:02:57;101243.06;;;7.36;96.34
25156;BME280;71253;51.496;7.606;2024-01-30T03:07:59;101238.97;;;7.43;95.84
25156;BME280;71253;51.496;7.606;2024-01-30T03:13:01;101226.44;;;7.53;95.35
25156;BME280;71253;51.496;7.606;2024-01-30T03:18:03;101226.28;;;7.49;95.54
25156;BME280;71253;51.496;7.606;2024-01-30T03:23:05;101222.16;;;7.54;95.17
25156;BME280;71253;51.496;7.606;2024-01-30T03:28:07;101215.56;;;7.62;94.81
25156;BME280;71253;51.496;7.606;2024-01-30T03:33:08;101217.19;;;7.60;94.50
25156;BME280;71253;51.496;7.606;2024-01-30T03:38:10;101206.22;;;7.65;94.60
25156;BME280;71253;51.496;7.606;2024-01-30T03:43:12;101199.34;;;7.66;94.24
25156;BME280;71253;51.496;7.606;2024-01-30T03:48:13;101194.34;;;7.71;93.97
25156;BME280;71253;51.496;7.606;2024-01-30T03:53:15;101195.19;;;7.70;94.27
25156;BME280;71253;51.496;7.606;2024-01-30T03:58:17;101193.41;;;7.67;94.26
25156;BME280;71253;51.496;7.606;2024-01-30T04:03:18;101186.28;;;7.60;94.53
25156;BME280;71253;51.496;7.606;2024-01-30T04:08:20;101198.84;;;7.49;94.98
25156;BME280;71253;51.496;7.606;2024-01-30T04:13:22;101186.09;;;7.54;95.26
25156;BME280;71253;51.496;7.606;2024-01-30T04:18:23;101190.25;;;7.77;93.91
25156;BME280;71253;51.496;7.606;2024-01-30T04:23:25;101179.00;;;7.74;93.78
25156;BME280;71253;51.496;7.606;2024-01-30T04:28:27;101187.41;;;7.68;94.34
25156;BME280;71253;51.496;7.606;2024-01-30T04:33:28;101175.38;;;7.67;94.39
25156;BME280;71253;51.496;7.606;2024-01-30T04:38:30;101185.06;;;7.76;93.49
25156;BME280;71253;51.496;7.606;2024-01-30T04:43:31;101173.34;;;7.57;94.54
25156;BME280;71253;51.496;7.606;2024-01-30T04:48:33;101173.22;;;7.54;95.01
25156;BME280;71253;51.496;7.606;2024-01-30T04:53:35;101183.00;;;7.64;94.28
25156;BME280;71253;51.496;7.606;2024-01-30T04:58:36;101163.34;;;7.68;94.13
25156;BME280;71253;51.496;7.606;2024-01-30T05:03:38;101168.75;;;7.77;92.85
25156;BME280;71253;51.496;7.606;2024-01-30T05:08:40;101159.13;;;7.70;93.83
25156;BME280;71253;51.496;7.606;2024-01-30T05:13:41;101160.78;;;7.98;92.01
25156;BME280;71253;51.496;7.606;2024-01-30T05:18:43;101166.56;;;7.89;92.55
25156;BME280;71253;51.496;7.606;2024-01-30T05:23:45;101156.19;;;7.57;93.91
25156;BME280;71253;51.496;7.606;2024-01-30T05:28:46;101162.94;;;7.54;94.03
25156;BME280;71253;51.496;7.606;2024-01-30T05:33:48;101154.19;;;7.49;95.16
25156;BME280;71253;51.496;7.606;2024-01-30T05:38:50;101150.94;;;7.54;94.71
25156;BME280;71253;51.496;7.606;2024-01-30T05:43:51;101144.91;;;7.54;94.30
25156;BME280;71253;51.496;7.606;2024-01-30T05:48:53;101154.19;;;7.49;94.75
25156;BME280;71253;51.496;7.606;2024-01-30T05:53:55;101156.69;;;7.46;95.20
25156;BME280;71253;51.496;7.606;2024-01-30T05:58:56;101148.28;;;7.51;94.91
25156;BME280;71253;51.496;7.606;2024-01-30T06:03:58;101151.59;;;7.77;93.73
25156;BME280;71253;51.496;7.606;2024-01-30T06:08:59;101150.47;;;7.68;93.71
25156;BME280;71253;51.496;7.606;2024-01-30T06:14:01;101159.59;;;7.56;94.82
25156;BME280;71253;51.496;7.606;2024-01-30T06:19:02;101158.63;;;7.53;94.84
25156;BME280;71253;51.496;7.606;2024-01-30T06:24:04;101155.25;;;7.55;95.22
25156;BME280;71253;51.496;7.606;2024-01-30T06:29:06;101159.63;;;7.58;94.63
25156;BME280;71253;51.496;7.606;2024-01-30T06:34:09;101155.53;;;7.64;95.10
25156;BME280;71253;51.496;7.606;2024-01-30T06:39:10;101150.31;;;7.91;93.35
25156;BME280;71253;51.496;7.606;2024-01-30T06:44:12;101159.25;;;8.04;92.39
25156;BME280;71253;51.496;7.606;2024-01-30T06:49:14;101167.03;;;8.06;92.17
25156;BME280;71253;51.496;7.606;2024-01-30T06:54:15;101165.38;;;8.08;91.83
25156;BME280;71253;51.496;7.606;2024-01-30T06:59:17;101162.66;;;8.03;92.13
25156;BME280;71253;51.496;7.606;2024-01-30T07:04:18;101159.38;;;8.09;91.55
25156;BME280;71253;51.496;7.606;2024-01-30T07:09:20;101162.47;;;7.97;92.00
25156;BME280;71253;51.496;7.606;2024-01-30T07:14:22;101153.72;;;7.90;92.51
25156;BME280;71253;51.496;7.606;2024-01-30T07:19:23;101153.69;;;7.89;93.23
25156;BME280;71253;51.496;7.606;2024-01-30T07:24:25;101156.91;;;8.12;92.17
25156;BME280;71253;51.496;7.606;2024-01-30T07:29:26;101153.03;;;8.28;91.56
25156;BME280;71253;51.496;7.606;2024-01-30T07:34:28;101145.03;;;8.49;90.28
25156;BME280;71253;51.496;7.606;2024-01-30T07:39:29;101154.72;;;8.59;89.57
25156;BME280;71253;51.496;7.606;2024-01-30T07:44:31;101173.88;;;8.67;89.15
25156;BME280;71253;51.496;7.606;2024-01-30T07:49:33;101177.41;;;8.37;90.93
25156;BME280;71253;51.496;7.606;2024-01-30T07:54:40;101174.06;;;8.41;90.57
25156;BME280;71253;51.496;7.606;2024-01-30T07:59:42;101183.03;;;8.26;91.87
25156;BME280;71253;51.496;7.606;2024-01-30T08:04:44;101189.16;;;8.29;92.29
25156;BME280;71253;51.496;7.606;2024-01-30T08:09:45;101178.47;;;8.46;91.88
25156;BME280;71253;51.496;7.606;2024-01-30T08:14:47;101177.47;;;8.74;90.53
25156;BME280;71253;51.496;7.606;2024-01-30T08:19:48;101186.00;;;9.04;88.83
25156;BME280;71253;51.496;7.606;2024-01-30T08:24:50;101178.66;;;9.21;87.43
25156;BME280;71253;51.496;7.606;2024-01-30T08:29:52;101183.09;;;9.28;87.20
25156;BME280;71253;51.496;7.606;2024-01-30T08:34:53;101176.28;;;9.30;87.47
25156;BME280;71253;51.496;7.606;2024-01-30T08:39:55;101176.84;;;9.55;86.63
25156;BME280;71253;51.496;7.606;2024-01-30T08:44:56;101180.50;;;9.64;86.11
25156;BME280;71253;51.496;7.606;2024-01-30T08:49:58;101172.63;;;9.60;86.29
25156;BME280;71253;51.496;7.606;2024-01-30T08:55:00;101185.97;;;9.40;87.73
25156;BME280;71253;51.496;7.606;2024-01-30T09:00:01;101194.50;;;9.36;87.90
25156;BME280;71253;51.496;7.606;2024-01-30T09:05:03;101182.59;;;9.43;87.81
25156;BME280;71253;51.496;7.606;2024-01-30T09:10:05;101192.34;;;9.55;87.11
25156;BME280;71253;51.496;7.606;2024-01-30T09:15:07;101184.97;;;9.73;86.67
25156;BME280;71253;51.496;7.606;2024-01-30T09:20:10;101189.69;;;9.91;85.36
25156;BME280;71253;51.496;7.606;2024-01-30T09:25:11;101199.72;;;9.77;85.98
25156;BME280;71253;51.496;7.606;2024-01-30T09:30:13;101214.13;;;9.66;87.33
25156;BME280;71253;51.496;7.606;2024-01-30T09:35:15;101223.31;;;9.53;88.80
25156;BME280;71253;51.496;7.606;2024-01-30T09:40:16;101231.03;;;9.52;88.90
25156;BME280;71253;51.496;7.606;2024-01-30T09:45:18;101237.38;;;9.66;88.10
25156;BME280;71253;51.496;7.606;2024-01-30T09:50:20;101232.81;;;9.93;86.52
25156;BME280;71253;51.496;7.606;2024-01-30T09:55:22;101245.19;;;10.08;86.41
25156;BME280;71253;51.496;7.606;2024-01-30T10:00:23;101240.97;;;10.12;86.42
25156;BME280;71253;51.496;7.606;2024-01-30T10:05:26;101234.59;;;10.37;84.71
25156;BME280;71253;51.496;7.606;2024-01-30T10:10:28;101224.75;;;10.19;85.48
25156;BME280;71253;51.496;7.606;2024-01-30T10:15:30;101227.34;;;10.20;85.86
25156;BME280;71253;51.496;7.606;2024-01-30T10:20:32;101221.31;;;10.21;85.87
25156;BME280;71253;51.496;7.606;2024-01-30T10:25:34;101224.44;;;10.46;84.97
25156;BME280;71253;51.496;7.606;2024-01-30T10:30:35;101216.06;;;10.59;84.80
25156;BME280;71253;51.496;7.606;2024-01-30T10:35:37;101222.84;;;10.52;84.72
25156;BME280;71253;51.496;7.606;2024-01-30T10:40:39;101220.22;;;10.51;84.74
25156;BME280;71253;51.496;7.606;2024-01-30T10:45:42;101215.50;;;10.75;84.16
25156;BME280;71253;51.496;7.606;2024-01-30T10:50:48;101222.66;;;11.42;81.42
25156;BME280;71253;51.496;7.606;2024-01-30T10:55:52;101221.44;;;11.76;79.08
25156;BME280;71253;51.496;7.606;2024-01-30T11:00:56;101214.22;;;11.56;79.49
25156;BME280;71253;51.496;7.606;2024-01-30T11:06:00;101219.16;;;11.40;80.43
25156;BME280;71253;51.496;7.606;2024-01-30T11:11:01;101218.78;;;11.73;79.42
25156;BME280;71253;51.496;7.606;2024-01-30T11:16:06;101220.97;;;12.03;78.09
25156;BME280;71253;51.496;7.606;2024-01-30T11:21:07;101226.25;;;12.91;75.56
25156;BME280;71253;51.496;7.606;2024-01-30T11:26:12;101222.56;;;13.66;71.68
25156;BME280;71253;51.496;7.606;2024-01-30T11:31:18;101222.06;;;13.08;73.50
25156;BME280;71253;51.496;7.606;2024-01-30T11:36:25;101216.63;;;12.78;75.26
25156;BME280;71253;51.496;7.606;2024-01-30T11:41:27;101219.03;;;12.59;75.21
25156;BME280;71253;51.496;7.606;2024-01-30T11:46:30;101211.75;;;12.28;76.36
25156;BME280;71253;51.496;7.606;2024-01-30T11:51:31;101217.06;;;12.38;77.18
25156;BME280;71253;51.496;7.606;2024-01-30T11:56:33;101212.03;;;12.52;77.30
25156;BME280;71253;51.496;7.606;2024-01-30T12:01:35;101226.81;;;12.58;76.68
25156;BME280;71253;51.496;7.606;2024-01-30T12:06:37;101228.47;;;12.53;77.40
25156;BME280;71253;51.496;7.606;2024-01-30T12:11:48;101240.34;;;12.31;79.29
25156;BME280;71253;51.496;7.606;2024-01-30T12:16:50;101236.75;;;12.21;79.62
25156;BME280;71253;51.496;7.606;2024-01-30T12:21:56;101234.16;;;12.20;81.11
25156;BME280;71253;51.496;7.606;2024-01-30T12:26:59;101241.16;;;12.28;82.60
25156;BME280;71253;51.496;7.606;2024-01-30T12:32:00;101242.88;;;12.26;82.83
25156;BME280;71253;51.496;7.606;2024-01-30T12:37:02;101247.13;;;12.21;82.67
25156;BME280;71253;51.496;7.606;2024-01-30T12:42:04;101250.34;;;12.02;83.57
25156;BME280;71253;51.496;7.606;2024-01-30T12:47:06;101262.00;;;11.72;85.69
25156;BME280;71253;51.496;7.606;2024-01-30T12:52:07;101268.66;;;11.56;87.49
25156;BME280;71253;51.496;7.606;2024-01-30T12:57:09;101262.28;;;11.35;89.16
25156;BME280;71253;51.496;7.606;2024-01-30T13:02:14;101265.63;;;11.27;90.06
25156;BME280;71253;51.496;7.606;2024-01-30T13:07:16;101255.78;;;11.08;91.69
25156;BME280;71253;51.496;7.606;2024-01-30T13:12:18;101262.53;;;10.98;93.07
25156;BME280;71253;51.496;7.606;2024-01-30T13:17:19;101252.97;;;10.94;93.34
25156;BME280;71253;51.496;7.606;2024-01-30T13:22:21;101248.72;;;10.99;93.49
25156;BME280;71253;51.496;7.606;2024-01-30T13:27:23;101259.19;;;11.04;93.69
25156;BME280;71253;51.496;7.606;2024-01-30T13:32:24;101249.72;;;11.06;93.15
25156;BME280;71253;51.496;7.606;2024-01-30T13:37:26;101260.75;;;10.96;94.19
25156;BME280;71253;51.496;7.606;2024-01-30T13:42:28;101264.97;;;10.92;94.37
25156;BME280;71253;51.496;7.606;2024-01-30T13:47:29;101268.50;;;10.94;93.74
25156;BME280;71253;51.496;7.606;2024-01-30T13:52:31;101282.28;;;10.93;93.98
25156;BME280;71253;51.496;7.606;2024-01-30T13:57:33;101279.50;;;10.83;94.88
25156;BME280;71253;51.496;7.606;2024-01-30T14:02:34;101284.56;;;10.76;95.40
25156;BME280;71253;51.496;7.606;2024-01-30T14:07:37;101285.28;;;10.69;95.85
25156;BME280;71253;51.496;7.606;2024-01-30T14:12:39;101281.59;;;10.57;97.31
25156;BME280;71253;51.496;7.606;2024-01-30T14:17:40;101288.38;;;10.51;97.82
25156;BME280;71253;51.496;7.606;2024-01-30T14:22:42;101290.09;;;10.49;97.99
25156;BME280;71253;51.496;7.606;2024-01-30T14:27:44;101290.88;;;10.47;98.75
25156;BME280;71253;51.496;7.606;2024-01-30T14:32:45;101284.94;;;10.52;97.90
25156;BME280;71253;51.496;7.606;2024-01-30T14:37:47;101282.47;;;10.59;97.15
25156;BME280;71253;51.496;7.606;2024-01-30T14:42:49;101284.28;;;10.63;96.91
25156;BME280;71253;51.496;7.606;2024-01-30T14:47:51;101280.09;;;10.69;96.82
25156;BME280;71253;51.496;7.606;2024-01-30T14:52:52;101281.91;;;10.72;96.82
25156;BME280;71253;51.496;7.606;2024-01-30T14:57:54;101284.38;;;10.67;96.78
25156;BME280;71253;51.496;7.606;2024-01-30T15:02:56;101291.22;;;10.65;96.29
25156;BME280;71253;51.496;7.606;2024-01-30T15:07:57;101303.13;;;10.56;96.68
25156;BME280;71253;51.496;7.606;2024-01-30T15:12:59;101316.09;;;10.56;96.09
25156;BME280;71253;51.496;7.606;2024-01-30T15:18:01;101310.78;;;10.49;96.28
25156;BME280;71253;51.496;7.606;2024-01-30T15:23:02;101313.28;;;10.45;95.78
25156;BME280;71253;51.496;7.606;2024-01-30T15:28:04;101308.88;;;10.42;94.58
25156;BME280;71253;51.496;7.606;2024-01-30T15:33:06;101314.06;;;10.42;94.33
25156;BME280;71253;51.496;7.606;2024-01-30T15:38:08;101322.66;;;10.40;93.43
25156;BME280;71253;51.496;7.606;2024-01-30T15:43:09;101332.03;;;10.35;93.65
25156;BME280;71253;51.496;7.606;2024-01-30T15:48:11;101343.75;;;10.22;94.03
25156;BME280;71253;51.496;7.606;2024-01-30T15:53:12;101340.78;;;10.04;94.45
25156;BME280;71253;51.496;7.606;2024-01-30T15:58:14;101352.44;;;9.86;95.80
25156;BME280;71253;51.496;7.606;2024-01-30T16:03:16;101363.91;;;9.97;95.00
25156;BME280;71253;51.496;7.606;2024-01-30T16:08:17;101361.47;;;10.04;95.11
25156;BME280;71253;51.496;7.606;2024-01-30T16:13:19;101364.00;;;10.00;95.64
25156;BME280;71253;51.496;7.606;2024-01-30T16:18:21;101368.31;;;10.01;93.42
25156;BME280;71253;51.496;7.606;2024-01-30T16:23:22;101376.00;;;9.98;90.21
25156;BME280;71253;51.496;7.606;2024-01-30T16:28:25;101384.47;;;9.93;90.20
25156;BME280;71253;51.496;7.606;2024-01-30T16:33:26;101387.66;;;9.81;91.03
25156;BME280;71253;51.496;7.606;2024-01-30T16:38:28;101400.22;;;9.67;91.98
25156;BME280;71253;51.496;7.606;2024-01-30T16:43:29;101411.38;;;9.66;91.01
25156;BME280;71253;51.496;7.606;2024-01-30T16:48:31;101420.88;;;9.67;90.57
25156;BME280;71253;51.496;7.606;2024-01-30T16:53:33;101437.94;;;9.61;85.75
25156;BME280;71253;51.496;7.606;2024-01-30T16:58:34;101438.47;;;9.47;80.32
25156;BME280;71253;51.496;7.606;2024-01-30T17:03:36;101451.13;;;9.38;79.66
25156;BME280;71253;51.496;7.606;2024-01-30T17:08:38;101455.25;;;9.32;78.74
25156;BME280;71253;51.496;7.606;2024-01-30T17:13:40;101467.91;;;9.22;78.88
25156;BME280;71253;51.496;7.606;2024-01-30T17:18:42;101478.94;;;9.17;78.40
25156;BME280;71253;51.496;7.606;2024-01-30T17:23:46;101488.94;;;9.05;79.13
25156;BME280;71253;51.496;7.606;2024-01-30T17:28:47;101498.25;;;9.00;77.99
25156;BME280;71253;51.496;7.606;2024-01-30T17:33:49;101498.06;;;8.93;78.70
25156;BME280;71253;51.496;7.606;2024-01-30T17:38:51;101512.38;;;8.84;79.02
25156;BME280;71253;51.496;7.606;2024-01-30T17:43:53;101511.88;;;8.67;79.70
25156;BME280;71253;51.496;7.606;2024-01-30T17:48:54;101517.59;;;8.58;79.91
25156;BME280;71253;51.496;7.606;2024-01-30T17:53:56;101526.81;;;8.50;80.21
25156;BME280;71253;51.496;7.606;2024-01-30T17:58:57;101527.16;;;8.35;81.43
25156;BME280;71253;51.496;7.606;2024-01-30T18:03:59;101538.53;;;8.40;80.86
25156;BME280;71253;51.496;7.606;2024-01-30T18:09:01;101542.78;;;8.38;81.71
25156;BME280;71253;51.496;7.606;2024-01-30T18:14:02;101545.22;;;8.35;80.92
25156;BME280;71253;51.496;7.606;2024-01-30T18:19:04;101555.59;;;8.37;81.38
25156;BME280;71253;51.496;7.606;2024-01-30T18:24:06;101555.53;;;8.35;80.57
25156;BME280;71253;51.496;7.606;2024-01-30T18:29:08;101562.41;;;8.35;80.38
25156;BME280;71253;51.496;7.606;2024-01-30T18:34:10;101571.63;;;8.28;82.17
25156;BME280;71253;51.496;7.606;2024-01-30T18:39:12;101578.34;;;8.23;83.18
25156;BME280;71253;51.496;7.606;2024-01-30T18:44:14;101589.00;;;8.08;85.81
25156;BME280;71253;51.496;7.606;2024-01-30T18:49:15;101600.75;;;8.00;88.26
25156;BME280;71253;51.496;7.606;2024-01-30T18:54:18;101603.00;;;7.91;89.49
25156;BME280;71253;51.496;7.606;2024-01-30T18:59:20;101604.34;;;7.81;90.17
25156;BME280;71253;51.496;7.606;2024-01-30T19:04:21;101607.53;;;7.74;90.46
25156;BME280;71253;51.496;7.606;2024-01-30T19:09:23;101607.31;;;7.68;89.03
25156;BME280;71253;51.496;7.606;2024-01-30T19:14:25;101614.84;;;7.62;88.66
25156;BME280;71253;51.496;7.606;2024-01-30T19:19:27;101615.53;;;7.58;88.52
25156;BME280;71253;51.496;7.606;2024-01-30T19:24:29;101616.13;;;7.51;88.42
25156;BME280;71253;51.496;7.606;2024-01-30T19:29:31;101617.56;;;7.44;88.92
25156;BME280;71253;51.496;7.606;2024-01-30T19:34:32;101628.53;;;7.38;89.22
25156;BME280;71253;51.496;7.606;2024-01-30T19:39:36;101635.44;;;7.40;88.65
25156;BME280;71253;51.496;7.606;2024-01-30T19:44:38;101631.09;;;7.38;89.09
25156;BME280;71253;51.496;7.606;2024-01-30T19:49:40;101638.59;;;7.32;90.00
25156;BME280;71253;51.496;7.606;2024-01-30T19:54:41;101647.13;;;7.31;89.83
25156;BME280;71253;51.496;7.606;2024-01-30T19:59:43;101654.00;;;7.31;89.98
25156;BME280;71253;51.496;7.606;2024-01-30T20:04:45;101656.44;;;7.28;89.86
25156;BME280;71253;51.496;7.606;2024-01-30T20:09:47;101661.47;;;7.25;90.26
25156;BME280;71253;51.496;7.606;2024-01-30T20:14:48;101664.88;;;7.24;90.19
25156;BME280;71253;51.496;7.606;2024-01-30T20:19:50;101673.16;;;7.17;91.28
25156;BME280;71253;51.496;7.606;2024-01-30T20:24:52;101683.41;;;7.15;91.50
25156;BME280;71253;51.496;7.606;2024-01-30T20:29:54;101689.00;;;7.05;92.25
25156;BME280;71253;51.496;7.606;2024-01-30T20:34:55;101696.72;;;7.05;92.78
25156;BME280;71253;51.496;7.606;2024-01-30T20:39:57;101697.47;;;7.02;93.36
25156;BME280;71253;51.496;7.606;2024-01-30T20:44:59;101699.97;;;7.01;93.38
25156;BME280;71253;51.496;7.606;2024-01-30T20:50:01;101703.34;;;7.00;93.83
25156;BME280;71253;51.496;7.606;2024-01-30T20:55:03;101705.69;;;6.94;94.61
25156;BME280;71253;51.496;7.606;2024-01-30T21:00:05;101714.09;;;6.90;95.73
25156;BME280;71253;51.496;7.606;2024-01-30T21:05:07;101710.53;;;6.86;96.00
25156;BME280;71253;51.496;7.606;2024-01-30T21:10:09;101711.34;;;6.85;96.33
25156;BME280;71253;51.496;7.606;2024-01-30T21:15:11;101718.69;;;6.76;98.11
25156;BME280;71253;51.496;7.606;2024-01-30T21:20:13;101727.13;;;6.73;99.06
25156;BME280;71253;51.496;7.606;2024-01-30T21:25:15;101728.63;;;6.68;100.00
25156;BME280;71253;51.496;7.606;2024-01-30T21:30:17;101726.66;;;6.63;100.00
25156;BME280;71253;51.496;7.606;2024-01-30T21:35:18;101727.53;;;6.63;100.00
25156;BME280;71253;51.496;7.606;2024-01-30T21:40:20;101722.34;;;6.62;100.00
25156;BME280;71253;51.496;7.606;2024-01-30T21:45:21;101722.97;;;6.56;100.00
25156;BME280;71253;51.496;7.606;2024-01-30T21:50:23;101736.03;;;6.61;100.00
25156;BME280;71253;51.496;7.606;2024-01-30T21:55:25;101734.22;;;6.58;100.00
25156;BME280;71253;51.496;7.606;2024-01-30T22:00:29;101728.97;;;6.56;100.00
25156;BME280;71253;51.496;7.606;2024-01-30T22:05:30;101732.31;;;6.54;100.00
25156;BME280;71253;51.496;7.606;2024-01-30T22:10:32;101742.44;;;6.51;100.00
25156;BME280;71253;51.496;7.606;2024-01-30T22:15:34;101740.09;;;6.55;100.00
25156;BME280;71253;51.496;7.606;2024-01-30T22:20:35;101738.34;;;6.54;100.00
25156;BME280;71253;51.496;7.606;2024-01-30T22:25:37;101747.75;;;6.54;100.00
25156;BME280;71253;51.496;7.606;2024-01-30T22:30:39;101745.91;;;6.51;100.00
25156;BME280;71253;51.496;7.606;2024-01-30T22:35:40;101758.66;;;6.48;100.00
25156;BME280;71253;51.496;7.606;2024-01-30T22:40:42;101765.28;;;6.43;100.00
25156;BME280;71253;51.496;7.606;2024-01-30T22:45:43;101766.81;;;6.40;100.00
25156;BME280;71253;51.496;7.606;2024-01-30T22:50:45;101772.84;;;6.40;100.00
25156;BME280;71253;51.496;7.606;2024-01-30T22:55:46;101785.63;;;6.39;100.00
25156;BME280;71253;51.496;7.606;2024-01-30T23:00:48;101783.88;;;6.38;100.00
25156;BME280;71253;51.496;7.606;2024-01-30T23:05:50;101785.47;;;6.36;100.00
25156;BME280;71253;51.496;7.606;2024-01-30T23:10:51;101793.13;;;6.34;100.00
25156;BME280;71253;51.496;7.606;2024-01-30T23:15:53;101805.78;;;6.29;100.00
25156;BME280;71253;51.496;7.606;2024-01-30T23:20:54;101812.56;;;6.27;100.00
25156;BME280;71253;51.496;7.606;2024-01-30T23:25:56;101815.06;;;6.26;100.00
25156;BME280;71253;51.496;7.606;2024-01-30T23:30:58;101818.50;;;6.26;100.00
25156;BME280;71253;51.496;7.606;2024-01-30T23:35:59;101823.38;;;6.20;100.00
25156;BME280;71253;51.496;7.606;2024-01-30T23:41:01;101824.41;;;6.06;100.00
25156;BME280;71253;51.496;7.606;2024-01-30T23:46:03;101843.06;;;6.02;100.00
25156;BME280;71253;51.496;7.606;2024-01-30T23:51:04;101838.94;;;5.88;100.00
25156;BME280;71253;51.496;7.606;2024-01-30T23:56:06;101836.63;;;5.76;100.00
